Weather History for Chicago Lansing, IL

Change the Weather History Date:

Monday, December 24, 2012

  Actual Average (KMDW) Record (KMDW)
Temperature  
Mean Temperature 30 °F 27 °F  
Max Temperature 34 °F 33 °F 59 °F (1982)
Min Temperature 27 °F 21 °F -20 °F (1983)
Degree Days  
Heating Degree Days 34 38  
Month to date heating degree days 843  
Since 1 July heating degree days 1978  
Cooling Degree Days 0 0  
Month to date cooling degree days 0  
Year to date cooling degree days 1045  
Moisture  
Dew Point 25 °F    
Average Humidity 78    
Maximum Humidity 84    
Minimum Humidity 73    
Precipitation  
Precipitation 0.00 in 0.07 in 2.61 in (1965)
Month to date precipitation 2.05  
Year to date precipitation 38.57  
Sea Level Pressure  
Sea Level Pressure 29.92 in    
Wind  
Wind Speed 6 mph (NNE)    
Max Wind Speed 12 mph    
Max Gust Speed 18 mph    
Visibility 10 miles    
Events Snow    
T = Trace of Precipitation, MM = Missing Value Source: NWS Daily Summary

Daily Weather History Graph

Daily Weather History Graph

Search for Another Location

Airport:

Trip Planner

Search our weather history database for the weather conditions in past years. The results will help you decide how hot, cold, wet, or windy it might be!

Date:

Astronomy

Dec. 24, 2012 Rise Set
Actual Time 7:14 AM CST 4:25 PM CST
Civil Twilight 6:43 AM CST 4:56 PM CST
Nautical Twilight 6:08 AM CST 5:31 PM CST
Astronomical Twilight 5:34 AM CST 6:05 PM CST
Moon 1:53 PM CST (12/24) 3:51 AM CST (12/24)
Length of Visible Light 10h 13m
Length of Day
9h 10m
Waxing Gibbous, 88% of the Moon is Illuminated
Dec 24
Waxing Gibbous
Dec 28
Full
Jan 4
Last Quarter
Jan 11
New
Jan 18
First Quarter

Hourly Weather History & Observations

Time (CST) Temp. Windchill Dew Point Humidity Pressure Visibility Wind Dir Wind Speed Gust Speed Precip Events Conditions
12:15 AM 32.0 °F 25.6 °F 26.1 °F 79% 29.96 in 10.0 mi East 6.9 mph - N/A   Overcast
12:35 AM 32.0 °F 24.8 °F 25.7 °F 78% 29.96 in 10.0 mi East 8.1 mph - N/A   Overcast
12:55 AM 31.1 °F 24.5 °F 25.3 °F 79% 29.95 in 10.0 mi ESE 6.9 mph - N/A   Overcast
1:15 AM 30.6 °F 23.8 °F 25.3 °F 81% 29.94 in 10.0 mi East 6.9 mph - N/A   Scattered Clouds
1:35 AM 30.2 °F 22.6 °F 24.8 °F 80% 29.92 in 10.0 mi East 8.1 mph - N/A   Clear
1:55 AM 30.2 °F 23.4 °F 24.8 °F 80% 29.92 in 10.0 mi East 6.9 mph - N/A   Clear
2:15 AM 29.8 °F 23.9 °F 24.3 °F 80% 29.91 in 10.0 mi East 5.8 mph - N/A   Clear
2:35 AM 29.5 °F 22.5 °F 23.9 °F 80% 29.91 in 10.0 mi East 6.9 mph - N/A   Clear
2:55 AM 29.3 °F 22.3 °F 23.9 °F 80% 29.90 in 10.0 mi East 6.9 mph - N/A   Clear
3:15 AM 29.1 °F 24.1 °F 23.7 °F 80% 29.90 in 10.0 mi East 4.6 mph - N/A   Clear
3:35 AM 29.1 °F 22.1 °F 23.4 °F 79% 29.89 in 10.0 mi East 6.9 mph - N/A   Clear
3:55 AM 28.9 °F 23.9 °F 23.2 °F 79% 29.88 in 10.0 mi East 4.6 mph - N/A   Clear
4:15 AM 28.8 °F 21.7 °F 23.0 °F 79% 29.86 in 10.0 mi East 6.9 mph - N/A   Clear
4:35 AM 28.4 °F 21.2 °F 23.0 °F 80% 29.86 in 10.0 mi East 6.9 mph - N/A   Clear
4:55 AM 28.2 °F 23.1 °F 23.0 °F 81% 29.85 in 10.0 mi East 4.6 mph - N/A   Clear
5:15 AM 28.4 °F 22.2 °F 23.0 °F 80% 29.86 in 10.0 mi East 5.8 mph - N/A   Scattered Clouds
5:35 AM 28.4 °F 23.3 °F 23.0 °F 80% 29.87 in 10.0 mi NNE 4.6 mph - N/A   Mostly Cloudy
5:55 AM 28.4 °F 21.2 °F 23.4 °F 81% 29.86 in 10.0 mi NE 6.9 mph - N/A   Scattered Clouds
6:15 AM 28.0 °F 22.8 °F 22.8 °F 81% 29.87 in 10.0 mi NE 4.6 mph - N/A   Clear
6:35 AM 27.9 °F 24.0 °F 23.0 °F 82% 29.87 in 10.0 mi NNE 3.5 mph - N/A   Clear
6:55 AM 28.0 °F 24.2 °F 23.0 °F 81% 29.88 in 10.0 mi North 3.5 mph - N/A   Scattered Clouds
7:15 AM 27.9 °F 22.6 °F 23.5 °F 84% 29.87 in 10.0 mi NE 4.6 mph - N/A   Clear
7:35 AM 28.2 °F 22.0 °F 23.7 °F 83% 29.87 in 10.0 mi North 5.8 mph - N/A   Scattered Clouds
7:55 AM 28.9 °F 23.9 °F 23.9 °F 81% 29.87 in 10.0 mi NNE 4.6 mph - N/A   Mostly Cloudy
8:15 AM 29.8 °F 24.9 °F 24.4 °F 80% 29.87 in 10.0 mi ENE 4.6 mph - N/A   Mostly Cloudy
8:35 AM 30.6 °F 27.1 °F 24.8 °F 79% 29.87 in 10.0 mi NE 3.5 mph - N/A   Scattered Clouds
8:55 AM 31.6 °F 26.0 °F 25.5 °F 78% 29.86 in 10.0 mi ENE 5.8 mph - N/A   Clear
9:15 AM 32.0 °F 27.5 °F 25.5 °F 77% 29.87 in 10.0 mi NNE 4.6 mph - N/A   Mostly Cloudy
9:35 AM 32.0 °F 27.5 °F 26.1 °F 79% 29.87 in 10.0 mi NE 4.6 mph - N/A   Overcast
9:55 AM 32.5 °F 28.1 °F 26.4 °F 78% 29.87 in 10.0 mi ENE 4.6 mph - N/A   Overcast
10:15 AM 32.4 °F - 26.2 °F 78% 29.88 in 10.0 mi Calm Calm - N/A   Overcast
10:35 AM 32.7 °F - 26.8 °F 79% 29.87 in 10.0 mi Calm Calm - N/A   Overcast
10:55 AM 32.7 °F - 26.6 °F 78% 29.86 in 10.0 mi Calm Calm - N/A   Overcast
11:15 AM 32.9 °F - 26.6 °F 78% 29.85 in 10.0 mi Calm Calm - N/A   Overcast
11:35 AM 32.9 °F - 27.0 °F 79% 29.85 in 10.0 mi Calm Calm - N/A   Overcast
11:55 AM 32.9 °F - 27.1 °F 79% 29.85 in 10.0 mi Calm Calm - N/A   Overcast
12:15 PM 33.4 °F - 27.5 °F 79% 29.84 in 10.0 mi Calm Calm - N/A   Overcast
12:35 PM 33.8 °F 29.6 °F 27.3 °F 77% 29.84 in 10.0 mi NW 4.6 mph - N/A   Overcast
12:55 PM 33.6 °F 28.4 °F 27.3 °F 78% 29.83 in 10.0 mi NNW 5.8 mph - N/A   Overcast
1:15 PM 33.8 °F 28.6 °F 27.5 °F 78% 29.83 in 10.0 mi North 5.8 mph - N/A   Overcast
1:35 PM 33.8 °F 28.6 °F 27.9 °F 79% 29.83 in 10.0 mi North 5.8 mph - N/A   Overcast
1:55 PM 33.8 °F 28.6 °F 28.0 °F 79% 29.84 in 10.0 mi North 5.8 mph - N/A   Overcast
2:15 PM 33.8 °F 27.7 °F 28.2 °F 80% 29.84 in 10.0 mi North 6.9 mph - N/A   Overcast
2:35 PM 33.8 °F 28.6 °F 28.4 °F 81% 29.84 in 10.0 mi North 5.8 mph - N/A   Overcast
2:55 PM 34.0 °F 28.8 °F 28.8 °F 81% 29.86 in 10.0 mi NNW 5.8 mph - N/A   Overcast
3:15 PM 33.8 °F 27.0 °F 28.4 °F 81% 29.88 in 10.0 mi NNW 8.1 mph - N/A   Overcast
3:35 PM 33.8 °F 27.0 °F 28.2 °F 80% 29.88 in 10.0 mi North 8.1 mph - N/A   Overcast
3:55 PM 33.8 °F 27.0 °F 27.5 °F 78% 29.89 in 10.0 mi North 8.1 mph 18.4 mph N/A   Overcast
4:15 PM 33.4 °F 25.4 °F 26.8 °F 77% 29.90 in 10.0 mi NNW 10.4 mph - N/A   Overcast
4:35 PM 33.1 °F 24.9 °F 25.7 °F 74% 29.91 in 10.0 mi NNW 10.4 mph 17.3 mph N/A   Overcast
4:55 PM 33.1 °F 24.9 °F 25.3 °F 73% 29.92 in 10.0 mi NNW 10.4 mph 17.3 mph N/A   Overcast
5:15 PM 32.9 °F 24.7 °F 25.7 °F 75% 29.93 in 10.0 mi NNW 10.4 mph 17.3 mph N/A   Overcast
5:35 PM 32.5 °F 24.2 °F 25.7 °F 76% 29.94 in 10.0 mi NNW 10.4 mph - N/A   Overcast
5:55 PM 32.4 °F 24.6 °F 25.5 °F 76% 29.95 in 10.0 mi NNW 9.2 mph - N/A   Overcast
6:15 PM 32.4 °F 24.6 °F 25.2 °F 75% 29.96 in 10.0 mi NW 9.2 mph 16.1 mph N/A   Overcast
6:35 PM 32.0 °F 23.0 °F 24.8 °F 75% 29.97 in 10.0 mi NNW 11.5 mph 16.1 mph N/A   Overcast
6:55 PM 32.0 °F 23.0 °F 24.4 °F 74% 29.97 in 10.0 mi NNW 11.5 mph - N/A   Overcast
7:15 PM 32.0 °F 23.6 °F 24.3 °F 73% 29.98 in 10.0 mi NNW 10.4 mph - N/A   Overcast
7:35 PM 32.0 °F 23.6 °F 24.3 °F 73% 29.98 in 10.0 mi NNW 10.4 mph - N/A   Overcast
7:55 PM 32.0 °F 23.6 °F 24.3 °F 73% 29.99 in 10.0 mi NNW 10.4 mph - N/A   Overcast
8:15 PM 32.0 °F 23.6 °F 24.1 °F 73% 30.00 in 10.0 mi NNW 10.4 mph - N/A   Overcast
8:35 PM 32.0 °F 23.0 °F 24.1 °F 73% 30.01 in 10.0 mi NW 11.5 mph - N/A   Overcast
8:55 PM 32.0 °F 23.6 °F 24.3 °F 73% 30.02 in 10.0 mi NNW 10.4 mph - N/A   Overcast
9:15 PM 31.8 °F 23.9 °F 23.9 °F 73% 30.03 in 10.0 mi NW 9.2 mph - N/A   Overcast
9:35 PM 31.6 °F 25.1 °F 23.9 °F 73% 30.03 in 10.0 mi NNW 6.9 mph - N/A   Overcast
9:55 PM 31.6 °F 23.1 °F 23.9 °F 73% 30.04 in 10.0 mi NNW 10.4 mph - N/A   Overcast
10:15 PM 31.5 °F 24.2 °F 24.1 °F 74% 30.05 in 10.0 mi NW 8.1 mph - N/A   Overcast
10:35 PM 31.3 °F 24.7 °F 24.1 °F 75% 30.05 in 10.0 mi NW 6.9 mph - N/A   Overcast
10:55 PM 31.5 °F 24.9 °F 23.9 °F 74% 30.06 in 10.0 mi NNW 6.9 mph - N/A   Overcast
11:15 PM 31.5 °F 24.9 °F 23.7 °F 73% 30.07 in 10.0 mi NNW 6.9 mph - N/A   Overcast
11:35 PM 30.9 °F 23.5 °F 23.9 °F 75% 30.07 in 7.0 mi NNW 8.1 mph - N/A Snow Light Snow
11:55 PM 30.6 °F 22.4 °F 23.7 °F 76% 30.07 in 7.0 mi NNW 9.2 mph - N/A   Overcast